sensor_id;sensor_type;location;lat;lon;timestamp;temperature;humidity
10123;DHT22;5101;49.038;8.710;2024-02-04T00:02:02;9.30;99.90
10123;DHT22;5101;49.038;8.710;2024-02-04T00:04:29;9.40;99.90
10123;DHT22;5101;49.038;8.710;2024-02-04T00:06:54;9.30;99.90
10123;DHT22;5101;49.038;8.710;2024-02-04T00:09:20;9.30;99.90
10123;DHT22;5101;49.038;8.710;2024-02-04T00:11:46;9.30;99.90
10123;DHT22;5101;49.038;8.710;2024-02-04T00:14:11;9.40;99.90
10123;DHT22;5101;49.038;8.710;2024-02-04T00:16:37;9.40;99.90
10123;DHT22;5101;49.038;8.710;2024-02-04T00:19:03;9.40;99.90
10123;DHT22;5101;49.038;8.710;2024-02-04T00:21:28;9.40;99.90
10123;DHT22;5101;49.038;8.710;2024-02-04T00:23:54;9.40;99.90
10123;DHT22;5101;49.038;8.710;2024-02-04T00:26:19;9.40;99.90
10123;DHT22;5101;49.038;8.710;2024-02-04T00:28:45;9.40;99.90
10123;DHT22;5101;49.038;8.710;2024-02-04T00:31:10;9.40;99.90
10123;DHT22;5101;49.038;8.710;2024-02-04T00:33:36;9.40;99.90
10123;DHT22;5101;49.038;8.710;2024-02-04T00:36:02;9.40;99.90
10123;DHT22;5101;49.038;8.710;2024-02-04T00:38:27;9.40;99.90
10123;DHT22;5101;49.038;8.710;2024-02-04T00:40:52;9.40;99.90
10123;DHT22;5101;49.038;8.710;2024-02-04T00:43:20;9.40;99.90
10123;DHT22;5101;49.038;8.710;2024-02-04T00:45:45;9.40;99.90
10123;DHT22;5101;49.038;8.710;2024-02-04T00:48:11;9.40;99.90
10123;DHT22;5101;49.038;8.710;2024-02-04T00:50:36;9.40;99.90
10123;DHT22;5101;49.038;8.710;2024-02-04T00:53:02;9.40;99.90
10123;DHT22;5101;49.038;8.710;2024-02-04T00:55:27;9.40;99.90
10123;DHT22;5101;49.038;8.710;2024-02-04T00:57:53;9.40;99.90
10123;DHT22;5101;49.038;8.710;2024-02-04T01:00:20;9.40;99.90
10123;DHT22;5101;49.038;8.710;2024-02-04T01:02:46;9.40;99.90
10123;DHT22;5101;49.038;8.710;2024-02-04T01:05:11;9.40;99.90
10123;DHT22;5101;49.038;8.710;2024-02-04T01:07:38;9.40;99.90
10123;DHT22;5101;49.038;8.710;2024-02-04T01:10:03;9.50;99.90
10123;DHT22;5101;49.038;8.710;2024-02-04T01:12:29;9.50;99.90
10123;DHT22;5101;49.038;8.710;2024-02-04T01:14:54;9.50;99.90
10123;DHT22;5101;49.038;8.710;2024-02-04T01:17:20;9.50;99.90
10123;DHT22;5101;49.038;8.710;2024-02-04T01:19:45;9.50;99.90
10123;DHT22;5101;49.038;8.710;2024-02-04T01:22:11;9.50;99.90
10123;DHT22;5101;49.038;8.710;2024-02-04T01:24:36;9.50;99.90
10123;DHT22;5101;49.038;8.710;2024-02-04T01:27:02;9.50;99.90
10123;DHT22;5101;49.038;8.710;2024-02-04T01:29:28;9.60;99.90
10123;DHT22;5101;49.038;8.710;2024-02-04T01:31:53;9.50;99.90
10123;DHT22;5101;49.038;8.710;2024-02-04T01:34:19;9.50;99.90
10123;DHT22;5101;49.038;8.710;2024-02-04T01:36:44;9.50;99.90
10123;DHT22;5101;49.038;8.710;2024-02-04T01:39:10;9.50;99.90
10123;DHT22;5101;49.038;8.710;2024-02-04T01:41:36;9.50;99.90
10123;DHT22;5101;49.038;8.710;2024-02-04T01:44:01;9.60;99.90
10123;DHT22;5101;49.038;8.710;2024-02-04T01:46:27;9.60;99.90
10123;DHT22;5101;49.038;8.710;2024-02-04T01:48:54;9.50;99.90
10123;DHT22;5101;49.038;8.710;2024-02-04T01:51:20;9.50;99.90
10123;DHT22;5101;49.038;8.710;2024-02-04T01:53:46;9.60;99.90
10123;DHT22;5101;49.038;8.710;2024-02-04T01:56:13;9.50;99.90
10123;DHT22;5101;49.038;8.710;2024-02-04T01:58:39;9.50;99.90
10123;DHT22;5101;49.038;8.710;2024-02-04T02:01:05;9.50;99.90
10123;DHT22;5101;49.038;8.710;2024-02-04T02:03:31;9.50;99.90
10123;DHT22;5101;49.038;8.710;2024-02-04T02:05:57;9.50;99.90
10123;DHT22;5101;49.038;8.710;2024-02-04T02:08:23;9.50;99.90
10123;DHT22;5101;49.038;8.710;2024-02-04T02:10:51;9.50;99.90
10123;DHT22;5101;49.038;8.710;2024-02-04T02:13:24;9.50;99.90
10123;DHT22;5101;49.038;8.710;2024-02-04T02:15:56;9.60;99.90
10123;DHT22;5101;49.038;8.710;2024-02-04T02:18:46;9.50;99.90
10123;DHT22;5101;49.038;8.710;2024-02-04T02:21:50;9.50;99.90
10123;DHT22;5101;49.038;8.710;2024-02-04T02:26:52;9.50;99.90
10123;DHT22;5101;49.038;8.710;2024-02-04T02:29:18;9.60;99.90
10123;DHT22;5101;49.038;8.710;2024-02-04T02:31:44;9.50;99.90
10123;DHT22;5101;49.038;8.710;2024-02-04T02:34:11;9.50;99.90
10123;DHT22;5101;49.038;8.710;2024-02-04T02:39:58;9.50;99.90
10123;DHT22;5101;49.038;8.710;2024-02-04T02:42:25;9.50;99.90
10123;DHT22;5101;49.038;8.710;2024-02-04T02:44:53;9.50;99.90
10123;DHT22;5101;49.038;8.710;2024-02-04T02:47:19;9.50;99.90
10123;DHT22;5101;49.038;8.710;2024-02-04T02:49:46;9.50;99.90
10123;DHT22;5101;49.038;8.710;2024-02-04T02:52:11;9.50;99.90
10123;DHT22;5101;49.038;8.710;2024-02-04T02:54:37;9.50;99.90
10123;DHT22;5101;49.038;8.710;2024-02-04T02:57:02;9.40;99.90
10123;DHT22;5101;49.038;8.710;2024-02-04T02:59:28;9.40;99.90
10123;DHT22;5101;49.038;8.710;2024-02-04T03:01:53;9.40;99.90
10123;DHT22;5101;49.038;8.710;2024-02-04T03:04:19;9.40;99.90
10123;DHT22;5101;49.038;8.710;2024-02-04T03:06:44;9.40;99.90
10123;DHT22;5101;49.038;8.710;2024-02-04T03:09:10;9.40;99.90
10123;DHT22;5101;49.038;8.710;2024-02-04T03:11:35;9.40;99.90
10123;DHT22;5101;49.038;8.710;2024-02-04T03:14:03;9.40;99.90
10123;DHT22;5101;49.038;8.710;2024-02-04T03:16:28;9.40;99.90
10123;DHT22;5101;49.038;8.710;2024-02-04T03:18:54;9.40;99.90
10123;DHT22;5101;49.038;8.710;2024-02-04T03:21:19;9.40;99.90
10123;DHT22;5101;49.038;8.710;2024-02-04T03:23:45;9.40;99.90
10123;DHT22;5101;49.038;8.710;2024-02-04T03:26:11;9.40;99.90
10123;DHT22;5101;49.038;8.710;2024-02-04T03:28:37;9.40;99.90
10123;DHT22;5101;49.038;8.710;2024-02-04T03:31:02;9.40;99.90
10123;DHT22;5101;49.038;8.710;2024-02-04T03:33:28;9.40;99.90
10123;DHT22;5101;49.038;8.710;2024-02-04T03:35:54;9.40;99.90
10123;DHT22;5101;49.038;8.710;2024-02-04T03:38:19;9.40;99.90
10123;DHT22;5101;49.038;8.710;2024-02-04T03:40:45;9.40;99.90
10123;DHT22;5101;49.038;8.710;2024-02-04T03:43:10;9.40;99.90
10123;DHT22;5101;49.038;8.710;2024-02-04T03:45:36;9.40;99.90
10123;DHT22;5101;49.038;8.710;2024-02-04T03:48:02;9.40;99.90
10123;DHT22;5101;49.038;8.710;2024-02-04T03:50:28;9.40;99.90
10123;DHT22;5101;49.038;8.710;2024-02-04T03:52:53;9.40;99.90
10123;DHT22;5101;49.038;8.710;2024-02-04T03:55:19;9.50;99.90
10123;DHT22;5101;49.038;8.710;2024-02-04T03:57:44;9.50;99.90
10123;DHT22;5101;49.038;8.710;2024-02-04T04:00:10;9.50;99.90
10123;DHT22;5101;49.038;8.710;2024-02-04T04:02:36;9.50;99.90
10123;DHT22;5101;49.038;8.710;2024-02-04T04:05:02;9.60;99.90
10123;DHT22;5101;49.038;8.710;2024-02-04T04:07:27;9.50;99.90
10123;DHT22;5101;49.038;8.710;2024-02-04T04:09:53;9.50;99.90
10123;DHT22;5101;49.038;8.710;2024-02-04T04:12:18;9.50;99.90
10123;DHT22;5101;49.038;8.710;2024-02-04T04:14:44;9.60;99.90
10123;DHT22;5101;49.038;8.710;2024-02-04T04:17:09;9.60;99.90
10123;DHT22;5101;49.038;8.710;2024-02-04T04:19:35;9.60;99.90
10123;DHT22;5101;49.038;8.710;2024-02-04T04:22:02;9.60;99.90
10123;DHT22;5101;49.038;8.710;2024-02-04T04:24:28;9.60;99.90
10123;DHT22;5101;49.038;8.710;2024-02-04T04:26:53;9.60;99.90
10123;DHT22;5101;49.038;8.710;2024-02-04T04:29:19;9.60;99.90
10123;DHT22;5101;49.038;8.710;2024-02-04T04:31:45;9.60;99.90
10123;DHT22;5101;49.038;8.710;2024-02-04T04:34:10;9.60;99.90
10123;DHT22;5101;49.038;8.710;2024-02-04T04:36:36;9.60;99.90
10123;DHT22;5101;49.038;8.710;2024-02-04T04:39:01;9.60;99.90
10123;DHT22;5101;49.038;8.710;2024-02-04T04:41:27;9.60;99.90
10123;DHT22;5101;49.038;8.710;2024-02-04T04:43:52;9.60;99.90
10123;DHT22;5101;49.038;8.710;2024-02-04T04:46:19;9.60;99.90
10123;DHT22;5101;49.038;8.710;2024-02-04T04:48:45;9.70;99.90
10123;DHT22;5101;49.038;8.710;2024-02-04T04:51:13;9.70;99.90
10123;DHT22;5101;49.038;8.710;2024-02-04T04:53:39;9.60;99.90
10123;DHT22;5101;49.038;8.710;2024-02-04T04:56:05;9.60;99.90
10123;DHT22;5101;49.038;8.710;2024-02-04T04:58:30;9.60;99.90
10123;DHT22;5101;49.038;8.710;2024-02-04T05:00:56;9.60;99.90
10123;DHT22;5101;49.038;8.710;2024-02-04T05:03:21;9.70;99.90
10123;DHT22;5101;49.038;8.710;2024-02-04T05:05:47;9.60;99.90
10123;DHT22;5101;49.038;8.710;2024-02-04T05:08:14;9.60;99.90
10123;DHT22;5101;49.038;8.710;2024-02-04T05:10:40;9.70;99.90
10123;DHT22;5101;49.038;8.710;2024-02-04T05:13:07;9.70;99.90
10123;DHT22;5101;49.038;8.710;2024-02-04T05:15:32;9.60;99.90
10123;DHT22;5101;49.038;8.710;2024-02-04T05:18:00;9.70;99.90
10123;DHT22;5101;49.038;8.710;2024-02-04T05:20:25;9.60;99.90
10123;DHT22;5101;49.038;8.710;2024-02-04T05:22:51;9.60;99.90
10123;DHT22;5101;49.038;8.710;2024-02-04T05:25:16;9.60;99.90
10123;DHT22;5101;49.038;8.710;2024-02-04T05:27:42;9.60;99.90
10123;DHT22;5101;49.038;8.710;2024-02-04T05:30:07;9.60;99.90
10123;DHT22;5101;49.038;8.710;2024-02-04T05:32:33;9.50;99.90
10123;DHT22;5101;49.038;8.710;2024-02-04T05:34:58;9.50;99.90
10123;DHT22;5101;49.038;8.710;2024-02-04T05:37:24;9.50;99.90
10123;DHT22;5101;49.038;8.710;2024-02-04T05:39:49;9.50;99.90
10123;DHT22;5101;49.038;8.710;2024-02-04T05:42:15;9.50;99.90
10123;DHT22;5101;49.038;8.710;2024-02-04T05:44:40;9.50;99.90
10123;DHT22;5101;49.038;8.710;2024-02-04T05:47:06;9.50;99.90
10123;DHT22;5101;49.038;8.710;2024-02-04T05:49:31;9.50;99.90
10123;DHT22;5101;49.038;8.710;2024-02-04T05:51:57;9.50;99.90
10123;DHT22;5101;49.038;8.710;2024-02-04T05:54:22;9.50;99.90
10123;DHT22;5101;49.038;8.710;2024-02-04T05:56:48;9.40;99.90
10123;DHT22;5101;49.038;8.710;2024-02-04T05:59:14;9.50;99.90
10123;DHT22;5101;49.038;8.710;2024-02-04T06:01:41;9.40;99.90
10123;DHT22;5101;49.038;8.710;2024-02-04T06:04:06;9.50;99.90
10123;DHT22;5101;49.038;8.710;2024-02-04T06:06:32;9.40;99.90
10123;DHT22;5101;49.038;8.710;2024-02-04T06:08:57;9.40;99.90
10123;DHT22;5101;49.038;8.710;2024-02-04T06:11:23;9.40;99.90
10123;DHT22;5101;49.038;8.710;2024-02-04T06:13:49;9.50;99.90
10123;DHT22;5101;49.038;8.710;2024-02-04T06:16:14;9.50;99.90
10123;DHT22;5101;49.038;8.710;2024-02-04T06:18:41;9.50;99.90
10123;DHT22;5101;49.038;8.710;2024-02-04T06:21:07;9.40;99.90
10123;DHT22;5101;49.038;8.710;2024-02-04T06:23:32;9.40;99.90
10123;DHT22;5101;49.038;8.710;2024-02-04T06:25:58;9.40;99.90
10123;DHT22;5101;49.038;8.710;2024-02-04T06:28:24;9.40;99.90
10123;DHT22;5101;49.038;8.710;2024-02-04T06:30:49;9.40;99.90
10123;DHT22;5101;49.038;8.710;2024-02-04T06:33:15;9.40;99.90
10123;DHT22;5101;49.038;8.710;2024-02-04T06:35:41;9.40;99.90
10123;DHT22;5101;49.038;8.710;2024-02-04T06:38:06;9.50;99.90
10123;DHT22;5101;49.038;8.710;2024-02-04T06:40:32;9.40;99.90
10123;DHT22;5101;49.038;8.710;2024-02-04T06:42:57;9.50;99.90
10123;DHT22;5101;49.038;8.710;2024-02-04T06:45:23;9.40;99.90
10123;DHT22;5101;49.038;8.710;2024-02-04T06:47:48;9.40;99.90
10123;DHT22;5101;49.038;8.710;2024-02-04T06:50:14;9.40;99.90
10123;DHT22;5101;49.038;8.710;2024-02-04T06:52:41;9.40;99.90
10123;DHT22;5101;49.038;8.710;2024-02-04T06:55:07;9.40;99.90
10123;DHT22;5101;49.038;8.710;2024-02-04T06:57:33;9.40;99.90
10123;DHT22;5101;49.038;8.710;2024-02-04T06:59:58;9.40;99.90
10123;DHT22;5101;49.038;8.710;2024-02-04T07:02:24;9.40;99.90
10123;DHT22;5101;49.038;8.710;2024-02-04T07:04:49;9.40;99.90
10123;DHT22;5101;49.038;8.710;2024-02-04T07:07:15;9.40;99.90
10123;DHT22;5101;49.038;8.710;2024-02-04T07:09:40;9.40;99.90
10123;DHT22;5101;49.038;8.710;2024-02-04T07:12:06;9.40;99.90
10123;DHT22;5101;49.038;8.710;2024-02-04T07:14:31;9.40;99.90
10123;DHT22;5101;49.038;8.710;2024-02-04T07:16:57;9.40;99.90
10123;DHT22;5101;49.038;8.710;2024-02-04T07:19:22;9.40;99.90
10123;DHT22;5101;49.038;8.710;2024-02-04T07:21:48;9.40;99.90
10123;DHT22;5101;49.038;8.710;2024-02-04T07:24:14;9.40;99.90
10123;DHT22;5101;49.038;8.710;2024-02-04T07:26:39;9.40;99.90
10123;DHT22;5101;49.038;8.710;2024-02-04T07:29:05;9.40;99.90
10123;DHT22;5101;49.038;8.710;2024-02-04T07:31:30;9.50;99.90
10123;DHT22;5101;49.038;8.710;2024-02-04T07:33:56;9.50;99.90
10123;DHT22;5101;49.038;8.710;2024-02-04T07:36:21;9.40;99.90
10123;DHT22;5101;49.038;8.710;2024-02-04T07:38:47;9.40;99.90
10123;DHT22;5101;49.038;8.710;2024-02-04T07:41:15;9.50;99.90
10123;DHT22;5101;49.038;8.710;2024-02-04T07:43:41;9.50;99.90
10123;DHT22;5101;49.038;8.710;2024-02-04T07:46:09;9.50;99.90
10123;DHT22;5101;49.038;8.710;2024-02-04T07:48:34;9.50;99.90
10123;DHT22;5101;49.038;8.710;2024-02-04T07:51:00;9.50;99.90
10123;DHT22;5101;49.038;8.710;2024-02-04T07:53:25;9.50;99.90
10123;DHT22;5101;49.038;8.710;2024-02-04T07:55:51;9.50;99.90
10123;DHT22;5101;49.038;8.710;2024-02-04T07:58:16;9.50;99.90
10123;DHT22;5101;49.038;8.710;2024-02-04T08:00:42;9.60;99.90
10123;DHT22;5101;49.038;8.710;2024-02-04T08:03:07;9.60;99.90
10123;DHT22;5101;49.038;8.710;2024-02-04T08:05:34;9.60;99.90
10123;DHT22;5101;49.038;8.710;2024-02-04T08:08:01;9.60;99.90
10123;DHT22;5101;49.038;8.710;2024-02-04T08:10:26;9.60;99.90
10123;DHT22;5101;49.038;8.710;2024-02-04T08:12:52;9.60;99.90
10123;DHT22;5101;49.038;8.710;2024-02-04T08:15:19;9.60;99.90
10123;DHT22;5101;49.038;8.710;2024-02-04T08:17:45;9.70;99.90
10123;DHT22;5101;49.038;8.710;2024-02-04T08:20:11;9.70;99.90
10123;DHT22;5101;49.038;8.710;2024-02-04T08:22:37;9.70;99.90
10123;DHT22;5101;49.038;8.710;2024-02-04T08:25:04;9.70;99.90
10123;DHT22;5101;49.038;8.710;2024-02-04T08:27:29;9.70;99.90
10123;DHT22;5101;49.038;8.710;2024-02-04T08:29:55;9.70;99.90
10123;DHT22;5101;49.038;8.710;2024-02-04T08:32:21;9.70;99.90
10123;DHT22;5101;49.038;8.710;2024-02-04T08:34:46;9.70;99.90
10123;DHT22;5101;49.038;8.710;2024-02-04T08:37:12;9.80;99.90
10123;DHT22;5101;49.038;8.710;2024-02-04T08:39:37;9.80;99.90
10123;DHT22;5101;49.038;8.710;2024-02-04T08:42:03;9.80;99.90
10123;DHT22;5101;49.038;8.710;2024-02-04T08:44:28;9.80;99.90
10123;DHT22;5101;49.038;8.710;2024-02-04T08:46:54;9.80;99.90
10123;DHT22;5101;49.038;8.710;2024-02-04T08:49:21;9.80;99.90
10123;DHT22;5101;49.038;8.710;2024-02-04T08:51:46;9.80;99.90
10123;DHT22;5101;49.038;8.710;2024-02-04T08:54:12;9.90;99.90
10123;DHT22;5101;49.038;8.710;2024-02-04T08:56:37;9.90;99.90
10123;DHT22;5101;49.038;8.710;2024-02-04T08:59:03;9.90;99.90
10123;DHT22;5101;49.038;8.710;2024-02-04T09:01:28;9.90;99.90
10123;DHT22;5101;49.038;8.710;2024-02-04T09:03:54;9.90;99.90
10123;DHT22;5101;49.038;8.710;2024-02-04T09:06:19;9.90;99.90
10123;DHT22;5101;49.038;8.710;2024-02-04T09:08:46;9.90;99.90
10123;DHT22;5101;49.038;8.710;2024-02-04T09:11:11;9.90;99.90
10123;DHT22;5101;49.038;8.710;2024-02-04T09:13:44;9.90;99.90
10123;DHT22;5101;49.038;8.710;2024-02-04T09:16:09;9.90;99.90
10123;DHT22;5101;49.038;8.710;2024-02-04T09:18:36;9.90;99.90
10123;DHT22;5101;49.038;8.710;2024-02-04T09:21:01;10.00;99.90
10123;DHT22;5101;49.038;8.710;2024-02-04T09:23:27;10.00;99.90
10123;DHT22;5101;49.038;8.710;2024-02-04T09:25:52;10.10;99.90
10123;DHT22;5101;49.038;8.710;2024-02-04T09:28:18;10.10;99.90
10123;DHT22;5101;49.038;8.710;2024-02-04T09:30:43;10.10;99.90
10123;DHT22;5101;49.038;8.710;2024-02-04T09:33:09;10.10;99.90
10123;DHT22;5101;49.038;8.710;2024-02-04T09:35:34;10.10;99.90
10123;DHT22;5101;49.038;8.710;2024-02-04T09:38:00;10.20;99.90
10123;DHT22;5101;49.038;8.710;2024-02-04T09:40:26;10.20;99.90
10123;DHT22;5101;49.038;8.710;2024-02-04T09:42:51;10.20;99.90
10123;DHT22;5101;49.038;8.710;2024-02-04T09:45:17;10.30;99.90
10123;DHT22;5101;49.038;8.710;2024-02-04T09:47:45;10.30;99.90
10123;DHT22;5101;49.038;8.710;2024-02-04T09:50:10;10.30;99.90
10123;DHT22;5101;49.038;8.710;2024-02-04T09:52:39;10.40;99.90
10123;DHT22;5101;49.038;8.710;2024-02-04T09:55:07;10.40;99.90
10123;DHT22;5101;49.038;8.710;2024-02-04T09:57:34;10.50;99.80
10123;DHT22;5101;49.038;8.710;2024-02-04T10:00:02;10.50;99.70
10123;DHT22;5101;49.038;8.710;2024-02-04T10:02:30;10.50;99.60
10123;DHT22;5101;49.038;8.710;2024-02-04T10:04:57;10.50;99.50
10123;DHT22;5101;49.038;8.710;2024-02-04T10:07:23;10.50;99.40
10123;DHT22;5101;49.038;8.710;2024-02-04T10:09:50;10.50;99.40
10123;DHT22;5101;49.038;8.710;2024-02-04T10:12:16;10.50;99.30
10123;DHT22;5101;49.038;8.710;2024-02-04T10:14:42;10.60;99.30
10123;DHT22;5101;49.038;8.710;2024-02-04T10:17:07;10.60;99.30
10123;DHT22;5101;49.038;8.710;2024-02-04T10:19:33;10.60;99.20
10123;DHT22;5101;49.038;8.710;2024-02-04T10:22:00;10.60;99.20
10123;DHT22;5101;49.038;8.710;2024-02-04T10:24:26;10.60;99.00
10123;DHT22;5101;49.038;8.710;2024-02-04T10:26:52;10.60;99.00
10123;DHT22;5101;49.038;8.710;2024-02-04T10:29:18;10.60;98.90
10123;DHT22;5101;49.038;8.710;2024-02-04T10:31:44;10.60;98.80
10123;DHT22;5101;49.038;8.710;2024-02-04T10:34:09;10.60;98.80
10123;DHT22;5101;49.038;8.710;2024-02-04T10:36:34;10.60;98.80
10123;DHT22;5101;49.038;8.710;2024-02-04T10:39:00;10.60;98.80
10123;DHT22;5101;49.038;8.710;2024-02-04T10:41:26;10.70;98.70
10123;DHT22;5101;49.038;8.710;2024-02-04T10:43:53;10.70;98.70
10123;DHT22;5101;49.038;8.710;2024-02-04T10:46:20;10.80;98.70
10123;DHT22;5101;49.038;8.710;2024-02-04T10:49:00;10.80;98.70
10123;DHT22;5101;49.038;8.710;2024-02-04T10:51:26;10.80;98.70
10123;DHT22;5101;49.038;8.710;2024-02-04T10:53:54;10.90;98.60
10123;DHT22;5101;49.038;8.710;2024-02-04T10:56:30;10.90;98.50
10123;DHT22;5101;49.038;8.710;2024-02-04T10:58:56;10.90;98.40
10123;DHT22;5101;49.038;8.710;2024-02-04T11:01:24;10.80;98.30
10123;DHT22;5101;49.038;8.710;2024-02-04T11:03:50;10.90;98.40
10123;DHT22;5101;49.038;8.710;2024-02-04T11:06:18;10.90;98.30
10123;DHT22;5101;49.038;8.710;2024-02-04T11:08:43;10.90;98.20
10123;DHT22;5101;49.038;8.710;2024-02-04T11:11:09;11.00;98.20
10123;DHT22;5101;49.038;8.710;2024-02-04T11:13:35;11.10;98.40
10123;DHT22;5101;49.038;8.710;2024-02-04T11:16:06;11.00;97.80
10123;DHT22;5101;49.038;8.710;2024-02-04T11:24:29;11.20;97.50
10123;DHT22;5101;49.038;8.710;2024-02-04T11:26:58;11.30;97.30
10123;DHT22;5101;49.038;8.710;2024-02-04T11:29:24;11.30;97.10
10123;DHT22;5101;49.038;8.710;2024-02-04T11:31:51;11.40;97.00
10123;DHT22;5101;49.038;8.710;2024-02-04T11:34:17;11.50;96.90
10123;DHT22;5101;49.038;8.710;2024-02-04T11:36:42;11.60;96.70
10123;DHT22;5101;49.038;8.710;2024-02-04T11:39:17;11.70;96.50
10123;DHT22;5101;49.038;8.710;2024-02-04T11:41:48;11.80;96.30
10123;DHT22;5101;49.038;8.710;2024-02-04T11:44:23;11.70;96.00
10123;DHT22;5101;49.038;8.710;2024-02-04T11:46:50;11.70;95.80
10123;DHT22;5101;49.038;8.710;2024-02-04T11:49:16;11.70;95.80
10123;DHT22;5101;49.038;8.710;2024-02-04T11:51:52;11.60;96.10
10123;DHT22;5101;49.038;8.710;2024-02-04T11:54:19;11.60;95.80
10123;DHT22;5101;49.038;8.710;2024-02-04T11:56:46;11.50;95.70
10123;DHT22;5101;49.038;8.710;2024-02-04T11:59:19;11.50;95.80
10123;DHT22;5101;49.038;8.710;2024-02-04T12:01:46;11.30;95.80
10123;DHT22;5101;49.038;8.710;2024-02-04T12:04:18;11.30;95.80
10123;DHT22;5101;49.038;8.710;2024-02-04T12:06:43;11.20;95.70
10123;DHT22;5101;49.038;8.710;2024-02-04T12:09:09;11.20;95.80
10123;DHT22;5101;49.038;8.710;2024-02-04T12:11:38;11.10;95.90
10123;DHT22;5101;49.038;8.710;2024-02-04T12:14:04;11.10;96.00
10123;DHT22;5101;49.038;8.710;2024-02-04T12:16:31;11.00;96.10
10123;DHT22;5101;49.038;8.710;2024-02-04T12:18:58;11.00;96.20
10123;DHT22;5101;49.038;8.710;2024-02-04T12:21:24;11.00;96.30
10123;DHT22;5101;49.038;8.710;2024-02-04T12:23:50;11.00;96.40
10123;DHT22;5101;49.038;8.710;2024-02-04T12:26:16;10.90;96.40
10123;DHT22;5101;49.038;8.710;2024-02-04T12:28:42;10.80;96.60
10123;DHT22;5101;49.038;8.710;2024-02-04T12:31:15;10.80;96.70
10123;DHT22;5101;49.038;8.710;2024-02-04T12:33:41;10.80;96.90
10123;DHT22;5101;49.038;8.710;2024-02-04T12:36:07;10.80;97.00
10123;DHT22;5101;49.038;8.710;2024-02-04T12:38:32;10.80;97.00
10123;DHT22;5101;49.038;8.710;2024-02-04T12:41:02;10.80;97.10
10123;DHT22;5101;49.038;8.710;2024-02-04T12:43:28;10.80;97.50
10123;DHT22;5101;49.038;8.710;2024-02-04T12:45:56;10.90;97.30
10123;DHT22;5101;49.038;8.710;2024-02-04T12:48:22;10.90;97.30
10123;DHT22;5101;49.038;8.710;2024-02-04T12:50:51;10.90;97.40
10123;DHT22;5101;49.038;8.710;2024-02-04T12:53:19;10.80;97.40
10123;DHT22;5101;49.038;8.710;2024-02-04T12:55:44;10.80;97.60
10123;DHT22;5101;49.038;8.710;2024-02-04T12:58:11;10.70;97.60
10123;DHT22;5101;49.038;8.710;2024-02-04T13:00:39;10.70;97.80
10123;DHT22;5101;49.038;8.710;2024-02-04T13:03:06;10.70;97.90
10123;DHT22;5101;49.038;8.710;2024-02-04T13:05:33;10.60;98.00
10123;DHT22;5101;49.038;8.710;2024-02-04T13:08:00;10.60;98.40
10123;DHT22;5101;49.038;8.710;2024-02-04T13:10:32;10.50;98.50
10123;DHT22;5101;49.038;8.710;2024-02-04T13:13:05;10.60;98.60
10123;DHT22;5101;49.038;8.710;2024-02-04T13:15:37;10.60;98.70
10123;DHT22;5101;49.038;8.710;2024-02-04T13:18:03;10.60;98.70
10123;DHT22;5101;49.038;8.710;2024-02-04T13:20:29;10.60;98.70
10123;DHT22;5101;49.038;8.710;2024-02-04T13:22:55;10.60;98.90
10123;DHT22;5101;49.038;8.710;2024-02-04T13:25:21;10.60;98.90
10123;DHT22;5101;49.038;8.710;2024-02-04T13:27:50;10.60;98.90
10123;DHT22;5101;49.038;8.710;2024-02-04T13:30:16;10.60;98.90
10123;DHT22;5101;49.038;8.710;2024-02-04T13:32:42;10.70;99.10
10123;DHT22;5101;49.038;8.710;2024-02-04T13:35:09;10.60;98.90
10123;DHT22;5101;49.038;8.710;2024-02-04T13:37:43;10.70;99.00
10123;DHT22;5101;49.038;8.710;2024-02-04T13:40:18;10.70;99.10
10123;DHT22;5101;49.038;8.710;2024-02-04T13:42:45;10.70;99.20
10123;DHT22;5101;49.038;8.710;2024-02-04T13:45:11;10.60;99.20
10123;DHT22;5101;49.038;8.710;2024-02-04T13:47:40;10.60;99.20
10123;DHT22;5101;49.038;8.710;2024-02-04T13:50:06;10.60;99.30
10123;DHT22;5101;49.038;8.710;2024-02-04T13:52:34;10.60;99.30
10123;DHT22;5101;49.038;8.710;2024-02-04T13:54:59;10.60;99.40
10123;DHT22;5101;49.038;8.710;2024-02-04T13:57:25;10.60;99.40
10123;DHT22;5101;49.038;8.710;2024-02-04T13:59:50;10.60;99.50
10123;DHT22;5101;49.038;8.710;2024-02-04T14:02:16;10.60;99.60
10123;DHT22;5101;49.038;8.710;2024-02-04T14:04:41;10.60;99.60
10123;DHT22;5101;49.038;8.710;2024-02-04T14:07:08;10.60;99.70
10123;DHT22;5101;49.038;8.710;2024-02-04T14:09:34;10.60;99.90
10123;DHT22;5101;49.038;8.710;2024-02-04T14:11:59;10.50;99.90
10123;DHT22;5101;49.038;8.710;2024-02-04T14:14:25;10.50;99.90
10123;DHT22;5101;49.038;8.710;2024-02-04T14:16:50;10.50;99.90
10123;DHT22;5101;49.038;8.710;2024-02-04T14:19:16;10.50;99.90
10123;DHT22;5101;49.038;8.710;2024-02-04T14:21:42;10.50;99.90
10123;DHT22;5101;49.038;8.710;2024-02-04T14:24:08;10.50;99.90
10123;DHT22;5101;49.038;8.710;2024-02-04T14:26:33;10.50;99.90
10123;DHT22;5101;49.038;8.710;2024-02-04T14:28:59;10.50;99.90
10123;DHT22;5101;49.038;8.710;2024-02-04T14:31:24;10.50;99.90
10123;DHT22;5101;49.038;8.710;2024-02-04T14:33:50;10.40;99.90
10123;DHT22;5101;49.038;8.710;2024-02-04T14:36:16;10.40;99.90
10123;DHT22;5101;49.038;8.710;2024-02-04T14:38:41;10.40;99.90
10123;DHT22;5101;49.038;8.710;2024-02-04T14:41:07;10.40;99.90
10123;DHT22;5101;49.038;8.710;2024-02-04T14:43:33;10.30;99.90
10123;DHT22;5101;49.038;8.710;2024-02-04T14:45:59;10.30;99.90
10123;DHT22;5101;49.038;8.710;2024-02-04T14:48:24;10.30;99.90
10123;DHT22;5101;49.038;8.710;2024-02-04T14:50:50;10.30;99.90
10123;DHT22;5101;49.038;8.710;2024-02-04T14:53:16;10.30;99.90
10123;DHT22;5101;49.038;8.710;2024-02-04T14:55:41;10.30;99.90
10123;DHT22;5101;49.038;8.710;2024-02-04T14:58:08;10.40;99.90
10123;DHT22;5101;49.038;8.710;2024-02-04T15:00:34;10.40;99.90
10123;DHT22;5101;49.038;8.710;2024-02-04T15:02:59;10.40;99.90
10123;DHT22;5101;49.038;8.710;2024-02-04T15:05:25;10.40;99.90
10123;DHT22;5101;49.038;8.710;2024-02-04T15:07:51;10.40;99.90
10123;DHT22;5101;49.038;8.710;2024-02-04T15:10:17;10.40;99.90
10123;DHT22;5101;49.038;8.710;2024-02-04T15:12:43;10.40;99.90
10123;DHT22;5101;49.038;8.710;2024-02-04T15:15:10;10.40;99.90
10123;DHT22;5101;49.038;8.710;2024-02-04T15:17:36;10.50;99.90
10123;DHT22;5101;49.038;8.710;2024-02-04T15:20:02;10.40;99.90
10123;DHT22;5101;49.038;8.710;2024-02-04T15:22:28;10.40;99.90
10123;DHT22;5101;49.038;8.710;2024-02-04T15:24:55;10.40;99.90
10123;DHT22;5101;49.038;8.710;2024-02-04T15:27:22;10.40;99.90
10123;DHT22;5101;49.038;8.710;2024-02-04T15:29:48;10.40;99.90
10123;DHT22;5101;49.038;8.710;2024-02-04T15:32:17;10.50;99.90
10123;DHT22;5101;49.038;8.710;2024-02-04T15:34:43;10.50;99.90
10123;DHT22;5101;49.038;8.710;2024-02-04T15:37:08;10.50;99.90
10123;DHT22;5101;49.038;8.710;2024-02-04T15:39:37;10.40;99.90
10123;DHT22;5101;49.038;8.710;2024-02-04T15:42:03;10.40;99.90
10123;DHT22;5101;49.038;8.710;2024-02-04T15:44:30;10.40;99.90
10123;DHT22;5101;49.038;8.710;2024-02-04T15:46:59;10.40;99.90
10123;DHT22;5101;49.038;8.710;2024-02-04T15:49:26;10.40;99.90
10123;DHT22;5101;49.038;8.710;2024-02-04T15:51:53;10.40;99.90
10123;DHT22;5101;49.038;8.710;2024-02-04T15:54:19;10.40;99.90
10123;DHT22;5101;49.038;8.710;2024-02-04T15:56:51;10.40;99.90
10123;DHT22;5101;49.038;8.710;2024-02-04T15:59:18;10.40;99.90
10123;DHT22;5101;49.038;8.710;2024-02-04T16:01:47;10.40;99.90